sensor_id;sensor_type;location;lat;lon;timestamp;P1;durP1;ratioP1;P2;durP2;ratioP2
82990;SDS011;72806;50.832;4.864;2024-01-30T00:01:03;10.48;;;4.70;;
82990;SDS011;72806;50.832;4.864;2024-01-30T00:03:30;6.35;;;4.68;;
82990;SDS011;72806;50.832;4.864;2024-01-30T00:05:57;7.82;;;4.03;;
82990;SDS011;72806;50.832;4.864;2024-01-30T00:08:25;4.90;;;4.40;;
82990;SDS011;72806;50.832;4.864;2024-01-30T00:10:53;6.97;;;4.40;;
82990;SDS011;72806;50.832;4.864;2024-01-30T00:13:20;8.18;;;4.05;;
82990;SDS011;72806;50.832;4.864;2024-01-30T00:15:48;4.35;;;3.85;;
82990;SDS011;72806;50.832;4.864;2024-01-30T00:18:16;6.50;;;4.03;;
82990;SDS011;72806;50.832;4.864;2024-01-30T00:20:44;5.20;;;3.90;;
82990;SDS011;72806;50.832;4.864;2024-01-30T00:23:12;6.15;;;4.40;;
82990;SDS011;72806;50.832;4.864;2024-01-30T00:25:39;5.82;;;4.28;;
82990;SDS011;72806;50.832;4.864;2024-01-30T00:28:07;7.03;;;4.38;;
82990;SDS011;72806;50.832;4.864;2024-01-30T00:30:34;8.82;;;4.30;;
82990;SDS011;72806;50.832;4.864;2024-01-30T00:33:02;5.88;;;3.67;;
82990;SDS011;72806;50.832;4.864;2024-01-30T00:35:31;6.18;;;4.15;;
82990;SDS011;72806;50.832;4.864;2024-01-30T00:37:58;5.20;;;3.80;;
82990;SDS011;72806;50.832;4.864;2024-01-30T00:40:26;4.40;;;3.88;;
82990;SDS011;72806;50.832;4.864;2024-01-30T00:42:53;7.03;;;4.35;;
82990;SDS011;72806;50.832;4.864;2024-01-30T00:45:20;6.97;;;4.35;;
82990;SDS011;72806;50.832;4.864;2024-01-30T00:47:48;6.45;;;4.78;;
82990;SDS011;72806;50.832;4.864;2024-01-30T00:50:16;4.38;;;3.80;;
82990;SDS011;72806;50.832;4.864;2024-01-30T00:52:45;5.43;;;4.13;;
82990;SDS011;72806;50.832;4.864;2024-01-30T00:55:12;7.72;;;3.67;;
82990;SDS011;72806;50.832;4.864;2024-01-30T00:57:40;9.73;;;4.95;;
82990;SDS011;72806;50.832;4.864;2024-01-30T01:00:07;6.30;;;4.18;;
82990;SDS011;72806;50.832;4.864;2024-01-30T01:02:35;7.00;;;4.05;;
82990;SDS011;72806;50.832;4.864;2024-01-30T01:05:04;5.75;;;4.47;;
82990;SDS011;72806;50.832;4.864;2024-01-30T01:07:33;6.82;;;4.72;;
82990;SDS011;72806;50.832;4.864;2024-01-30T01:10:01;5.40;;;3.88;;
82990;SDS011;72806;50.832;4.864;2024-01-30T01:12:29;6.47;;;4.00;;
82990;SDS011;72806;50.832;4.864;2024-01-30T01:14:56;5.25;;;4.10;;
82990;SDS011;72806;50.832;4.864;2024-01-30T01:17:24;5.47;;;4.13;;
82990;SDS011;72806;50.832;4.864;2024-01-30T01:19:51;5.50;;;3.85;;
82990;SDS011;72806;50.832;4.864;2024-01-30T01:22:19;5.05;;;3.25;;
82990;SDS011;72806;50.832;4.864;2024-01-30T01:24:46;6.15;;;3.95;;
82990;SDS011;72806;50.832;4.864;2024-01-30T01:27:15;7.15;;;3.63;;
82990;SDS011;72806;50.832;4.864;2024-01-30T01:29:42;4.30;;;3.90;;
82990;SDS011;72806;50.832;4.864;2024-01-30T01:32:10;5.68;;;3.92;;
82990;SDS011;72806;50.832;4.864;2024-01-30T01:34:38;5.25;;;4.20;;
82990;SDS011;72806;50.832;4.864;2024-01-30T01:37:05;7.55;;;3.70;;
82990;SDS011;72806;50.832;4.864;2024-01-30T01:39:33;5.43;;;3.58;;
82990;SDS011;72806;50.832;4.864;2024-01-30T01:42:00;5.72;;;4.20;;
82990;SDS011;72806;50.832;4.864;2024-01-30T01:44:29;6.78;;;4.30;;
82990;SDS011;72806;50.832;4.864;2024-01-30T01:46:57;6.32;;;4.25;;
82990;SDS011;72806;50.832;4.864;2024-01-30T01:49:25;9.43;;;4.57;;
82990;SDS011;72806;50.832;4.864;2024-01-30T01:51:55;9.02;;;3.97;;
82990;SDS011;72806;50.832;4.864;2024-01-30T01:54:23;7.85;;;4.03;;
82990;SDS011;72806;50.832;4.864;2024-01-30T01:56:52;6.63;;;4.43;;
82990;SDS011;72806;50.832;4.864;2024-01-30T01:59:19;6.30;;;3.88;;
82990;SDS011;72806;50.832;4.864;2024-01-30T02:01:49;7.03;;;3.88;;
82990;SDS011;72806;50.832;4.864;2024-01-30T02:04:17;5.22;;;4.28;;
82990;SDS011;72806;50.832;4.864;2024-01-30T02:06:44;5.40;;;3.60;;
82990;SDS011;72806;50.832;4.864;2024-01-30T02:09:12;3.83;;;3.28;;
82990;SDS011;72806;50.832;4.864;2024-01-30T02:11:39;6.93;;;4.00;;
82990;SDS011;72806;50.832;4.864;2024-01-30T02:14:07;5.97;;;4.07;;
82990;SDS011;72806;50.832;4.864;2024-01-30T02:16:34;6.05;;;3.88;;
82990;SDS011;72806;50.832;4.864;2024-01-30T02:19:03;7.35;;;4.25;;
82990;SDS011;72806;50.832;4.864;2024-01-30T02:21:31;8.57;;;4.13;;
82990;SDS011;72806;50.832;4.864;2024-01-30T02:23:59;7.45;;;3.60;;
82990;SDS011;72806;50.832;4.864;2024-01-30T02:26:28;7.20;;;4.28;;
82990;SDS011;72806;50.832;4.864;2024-01-30T02:28:55;6.78;;;4.30;;
82990;SDS011;72806;50.832;4.864;2024-01-30T02:31:22;7.18;;;4.22;;
82990;SDS011;72806;50.832;4.864;2024-01-30T02:33:51;6.25;;;4.43;;
82990;SDS011;72806;50.832;4.864;2024-01-30T02:36:18;4.93;;;3.75;;
82990;SDS011;72806;50.832;4.864;2024-01-30T02:38:47;7.07;;;4.07;;
82990;SDS011;72806;50.832;4.864;2024-01-30T02:41:14;6.57;;;4.13;;
82990;SDS011;72806;50.832;4.864;2024-01-30T02:43:42;5.82;;;4.03;;
82990;SDS011;72806;50.832;4.864;2024-01-30T02:46:09;7.03;;;4.63;;
82990;SDS011;72806;50.832;4.864;2024-01-30T02:48:36;6.38;;;4.07;;
82990;SDS011;72806;50.832;4.864;2024-01-30T02:51:04;8.20;;;4.57;;
82990;SDS011;72806;50.832;4.864;2024-01-30T02:53:31;6.70;;;4.20;;
82990;SDS011;72806;50.832;4.864;2024-01-30T02:56:00;4.50;;;3.90;;
82990;SDS011;72806;50.832;4.864;2024-01-30T02:58:28;8.18;;;4.60;;
82990;SDS011;72806;50.832;4.864;2024-01-30T03:00:55;6.80;;;3.92;;
82990;SDS011;72806;50.832;4.864;2024-01-30T03:03:23;6.47;;;3.80;;
82990;SDS011;72806;50.832;4.864;2024-01-30T03:05:50;5.97;;;4.20;;
82990;SDS011;72806;50.832;4.864;2024-01-30T03:08:18;6.80;;;4.07;;
82990;SDS011;72806;50.832;4.864;2024-01-30T03:10:46;5.22;;;4.15;;
82990;SDS011;72806;50.832;4.864;2024-01-30T03:13:14;6.93;;;4.50;;
82990;SDS011;72806;50.832;4.864;2024-01-30T03:15:42;5.93;;;3.95;;
82990;SDS011;72806;50.832;4.864;2024-01-30T03:18:09;7.38;;;4.05;;
82990;SDS011;72806;50.832;4.864;2024-01-30T03:20:36;5.80;;;4.30;;
82990;SDS011;72806;50.832;4.864;2024-01-30T03:23:03;5.35;;;3.95;;
82990;SDS011;72806;50.832;4.864;2024-01-30T03:25:31;4.30;;;3.72;;
82990;SDS011;72806;50.832;4.864;2024-01-30T03:27:58;5.10;;;3.85;;
82990;SDS011;72806;50.832;4.864;2024-01-30T03:30:26;5.07;;;3.72;;
82990;SDS011;72806;50.832;4.864;2024-01-30T03:32:54;7.22;;;3.67;;
82990;SDS011;72806;50.832;4.864;2024-01-30T03:35:21;5.15;;;4.13;;
82990;SDS011;72806;50.832;4.864;2024-01-30T03:37:48;6.40;;;4.18;;
82990;SDS011;72806;50.832;4.864;2024-01-30T03:40:16;8.48;;;4.45;;
82990;SDS011;72806;50.832;4.864;2024-01-30T03:42:43;7.60;;;4.00;;
82990;SDS011;72806;50.832;4.864;2024-01-30T03:45:10;4.82;;;4.07;;
82990;SDS011;72806;50.832;4.864;2024-01-30T03:47:39;6.70;;;4.25;;
82990;SDS011;72806;50.832;4.864;2024-01-30T03:50:09;5.00;;;3.53;;
82990;SDS011;72806;50.832;4.864;2024-01-30T03:52:37;6.40;;;3.55;;
82990;SDS011;72806;50.832;4.864;2024-01-30T03:55:04;6.63;;;3.70;;
82990;SDS011;72806;50.832;4.864;2024-01-30T03:57:32;8.18;;;3.65;;
82990;SDS011;72806;50.832;4.864;2024-01-30T03:59:59;6.60;;;3.40;;
82990;SDS011;72806;50.832;4.864;2024-01-30T04:02:26;5.70;;;3.67;;
82990;SDS011;72806;50.832;4.864;2024-01-30T04:04:55;4.93;;;3.70;;
82990;SDS011;72806;50.832;4.864;2024-01-30T04:07:22;5.30;;;4.03;;
82990;SDS011;72806;50.832;4.864;2024-01-30T04:09:49;7.22;;;3.67;;
82990;SDS011;72806;50.832;4.864;2024-01-30T04:12:16;6.75;;;4.43;;
82990;SDS011;72806;50.832;4.864;2024-01-30T04:14:44;5.72;;;3.92;;
82990;SDS011;72806;50.832;4.864;2024-01-30T04:17:11;6.30;;;4.28;;
82990;SDS011;72806;50.832;4.864;2024-01-30T04:19:38;5.55;;;3.90;;
82990;SDS011;72806;50.832;4.864;2024-01-30T04:22:07;5.18;;;3.90;;
82990;SDS011;72806;50.832;4.864;2024-01-30T04:24:34;4.88;;;3.67;;
82990;SDS011;72806;50.832;4.864;2024-01-30T04:27:02;6.85;;;3.80;;
82990;SDS011;72806;50.832;4.864;2024-01-30T04:29:30;4.93;;;3.72;;
82990;SDS011;72806;50.832;4.864;2024-01-30T04:31:59;5.25;;;3.63;;
82990;SDS011;72806;50.832;4.864;2024-01-30T04:34:26;6.22;;;4.47;;
82990;SDS011;72806;50.832;4.864;2024-01-30T04:36:53;6.32;;;3.80;;
82990;SDS011;72806;50.832;4.864;2024-01-30T04:39:22;4.88;;;3.50;;
82990;SDS011;72806;50.832;4.864;2024-01-30T04:41:49;6.13;;;4.25;;
82990;SDS011;72806;50.832;4.864;2024-01-30T04:44:17;6.68;;;4.13;;
82990;SDS011;72806;50.832;4.864;2024-01-30T04:46:44;5.85;;;3.70;;
82990;SDS011;72806;50.832;4.864;2024-01-30T04:49:12;4.15;;;3.75;;
82990;SDS011;72806;50.832;4.864;2024-01-30T04:51:39;7.47;;;4.53;;
82990;SDS011;72806;50.832;4.864;2024-01-30T04:54:06;6.78;;;3.72;;
82990;SDS011;72806;50.832;4.864;2024-01-30T04:56:35;9.38;;;3.75;;
82990;SDS011;72806;50.832;4.864;2024-01-30T04:59:03;8.52;;;4.00;;
82990;SDS011;72806;50.832;4.864;2024-01-30T05:01:30;6.10;;;4.25;;
82990;SDS011;72806;50.832;4.864;2024-01-30T05:03:57;6.25;;;4.03;;
82990;SDS011;72806;50.832;4.864;2024-01-30T05:06:26;5.88;;;3.85;;
82990;SDS011;72806;50.832;4.864;2024-01-30T05:08:54;4.70;;;3.85;;
82990;SDS011;72806;50.832;4.864;2024-01-30T05:11:21;4.53;;;3.60;;
82990;SDS011;72806;50.832;4.864;2024-01-30T05:13:50;8.63;;;3.78;;
82990;SDS011;72806;50.832;4.864;2024-01-30T05:16:17;5.70;;;3.85;;
82990;SDS011;72806;50.832;4.864;2024-01-30T05:18:44;4.82;;;3.67;;
82990;SDS011;72806;50.832;4.864;2024-01-30T05:21:12;8.27;;;4.18;;
82990;SDS011;72806;50.832;4.864;2024-01-30T05:23:39;7.63;;;4.38;;
82990;SDS011;72806;50.832;4.864;2024-01-30T05:26:06;5.90;;;4.13;;
82990;SDS011;72806;50.832;4.864;2024-01-30T05:28:34;4.75;;;3.95;;
82990;SDS011;72806;50.832;4.864;2024-01-30T05:31:03;6.40;;;3.83;;
82990;SDS011;72806;50.832;4.864;2024-01-30T05:33:30;8.15;;;3.80;;
82990;SDS011;72806;50.832;4.864;2024-01-30T05:35:57;6.65;;;4.20;;
82990;SDS011;72806;50.832;4.864;2024-01-30T05:38:25;4.45;;;4.00;;
82990;SDS011;72806;50.832;4.864;2024-01-30T05:40:52;4.70;;;3.70;;
82990;SDS011;72806;50.832;4.864;2024-01-30T05:43:19;6.30;;;3.85;;
82990;SDS011;72806;50.832;4.864;2024-01-30T05:45:47;5.50;;;3.78;;
82990;SDS011;72806;50.832;4.864;2024-01-30T05:48:16;4.53;;;3.50;;
82990;SDS011;72806;50.832;4.864;2024-01-30T05:50:43;6.13;;;3.97;;
82990;SDS011;72806;50.832;4.864;2024-01-30T05:53:10;7.13;;;4.20;;
82990;SDS011;72806;50.832;4.864;2024-01-30T05:55:37;10.90;;;4.38;;
82990;SDS011;72806;50.832;4.864;2024-01-30T05:58:05;5.78;;;4.30;;
82990;SDS011;72806;50.832;4.864;2024-01-30T06:00:32;7.68;;;4.47;;
82990;SDS011;72806;50.832;4.864;2024-01-30T06:02:59;7.05;;;4.40;;
82990;SDS011;72806;50.832;4.864;2024-01-30T06:05:28;6.05;;;4.65;;
82990;SDS011;72806;50.832;4.864;2024-01-30T06:07:55;7.68;;;4.28;;
82990;SDS011;72806;50.832;4.864;2024-01-30T06:10:22;7.15;;;4.25;;
82990;SDS011;72806;50.832;4.864;2024-01-30T06:12:49;7.18;;;4.53;;
82990;SDS011;72806;50.832;4.864;2024-01-30T06:15:16;6.93;;;3.90;;
82990;SDS011;72806;50.832;4.864;2024-01-30T06:17:44;4.82;;;3.95;;
82990;SDS011;72806;50.832;4.864;2024-01-30T06:20:11;10.50;;;4.43;;
82990;SDS011;72806;50.832;4.864;2024-01-30T06:22:40;7.80;;;3.97;;
82990;SDS011;72806;50.832;4.864;2024-01-30T06:25:07;9.93;;;4.57;;
82990;SDS011;72806;50.832;4.864;2024-01-30T06:27:35;6.72;;;4.53;;
82990;SDS011;72806;50.832;4.864;2024-01-30T06:30:03;7.50;;;4.13;;
82990;SDS011;72806;50.832;4.864;2024-01-30T06:32:31;7.25;;;3.72;;
82990;SDS011;72806;50.832;4.864;2024-01-30T06:34:59;6.78;;;3.90;;
82990;SDS011;72806;50.832;4.864;2024-01-30T06:37:27;9.05;;;4.18;;
82990;SDS011;72806;50.832;4.864;2024-01-30T06:39:55;4.90;;;4.00;;
82990;SDS011;72806;50.832;4.864;2024-01-30T06:42:23;6.32;;;4.38;;
82990;SDS011;72806;50.832;4.864;2024-01-30T06:44:50;7.38;;;4.85;;
82990;SDS011;72806;50.832;4.864;2024-01-30T06:47:17;6.20;;;4.13;;
82990;SDS011;72806;50.832;4.864;2024-01-30T06:49:44;5.43;;;4.20;;
82990;SDS011;72806;50.832;4.864;2024-01-30T06:52:12;6.10;;;4.38;;
82990;SDS011;72806;50.832;4.864;2024-01-30T06:54:39;6.15;;;4.53;;
82990;SDS011;72806;50.832;4.864;2024-01-30T06:57:08;6.05;;;4.75;;
82990;SDS011;72806;50.832;4.864;2024-01-30T06:59:37;8.40;;;5.05;;
82990;SDS011;72806;50.832;4.864;2024-01-30T07:02:08;8.45;;;4.80;;
82990;SDS011;72806;50.832;4.864;2024-01-30T07:04:36;9.18;;;4.93;;
82990;SDS011;72806;50.832;4.864;2024-01-30T07:07:04;8.88;;;5.40;;
82990;SDS011;72806;50.832;4.864;2024-01-30T07:09:37;7.13;;;4.88;;
82990;SDS011;72806;50.832;4.864;2024-01-30T07:12:04;6.38;;;4.68;;
82990;SDS011;72806;50.832;4.864;2024-01-30T07:14:34;5.05;;;4.22;;
82990;SDS011;72806;50.832;4.864;2024-01-30T07:17:01;8.45;;;4.93;;
82990;SDS011;72806;50.832;4.864;2024-01-30T07:19:29;7.53;;;4.55;;
82990;SDS011;72806;50.832;4.864;2024-01-30T07:21:56;6.22;;;4.15;;
82990;SDS011;72806;50.832;4.864;2024-01-30T07:24:23;7.85;;;5.28;;
82990;SDS011;72806;50.832;4.864;2024-01-30T07:26:51;9.68;;;4.45;;
82990;SDS011;72806;50.832;4.864;2024-01-30T07:29:18;8.23;;;4.80;;
82990;SDS011;72806;50.832;4.864;2024-01-30T07:31:47;7.82;;;4.25;;
82990;SDS011;72806;50.832;4.864;2024-01-30T07:34:14;6.80;;;4.88;;
82990;SDS011;72806;50.832;4.864;2024-01-30T07:36:41;6.95;;;4.93;;
82990;SDS011;72806;50.832;4.864;2024-01-30T07:39:10;6.53;;;4.65;;
82990;SDS011;72806;50.832;4.864;2024-01-30T07:41:37;6.18;;;4.38;;
82990;SDS011;72806;50.832;4.864;2024-01-30T07:44:04;8.43;;;4.78;;
82990;SDS011;72806;50.832;4.864;2024-01-30T07:46:32;6.63;;;5.07;;
82990;SDS011;72806;50.832;4.864;2024-01-30T07:49:00;6.63;;;4.03;;
82990;SDS011;72806;50.832;4.864;2024-01-30T07:51:28;4.85;;;4.07;;
82990;SDS011;72806;50.832;4.864;2024-01-30T07:54:00;6.22;;;4.07;;
82990;SDS011;72806;50.832;4.864;2024-01-30T07:56:27;7.72;;;4.75;;
82990;SDS011;72806;50.832;4.864;2024-01-30T07:58:54;7.50;;;4.82;;
82990;SDS011;72806;50.832;4.864;2024-01-30T08:01:22;9.30;;;5.00;;
82990;SDS011;72806;50.832;4.864;2024-01-30T08:03:49;10.57;;;5.05;;
82990;SDS011;72806;50.832;4.864;2024-01-30T08:06:18;8.20;;;4.88;;
82990;SDS011;72806;50.832;4.864;2024-01-30T08:08:45;9.65;;;4.50;;
82990;SDS011;72806;50.832;4.864;2024-01-30T08:11:13;9.52;;;4.63;;
82990;SDS011;72806;50.832;4.864;2024-01-30T08:13:40;8.65;;;5.15;;
82990;SDS011;72806;50.832;4.864;2024-01-30T08:16:08;7.00;;;4.82;;
82990;SDS011;72806;50.832;4.864;2024-01-30T08:18:35;7.32;;;4.60;;
82990;SDS011;72806;50.832;4.864;2024-01-30T08:21:02;8.98;;;4.60;;
82990;SDS011;72806;50.832;4.864;2024-01-30T08:23:31;11.00;;;4.82;;
82990;SDS011;72806;50.832;4.864;2024-01-30T08:25:58;6.45;;;4.50;;
82990;SDS011;72806;50.832;4.864;2024-01-30T08:28:26;6.70;;;4.90;;
82990;SDS011;72806;50.832;4.864;2024-01-30T08:30:54;7.50;;;4.75;;
82990;SDS011;72806;50.832;4.864;2024-01-30T08:33:21;8.05;;;5.03;;
82990;SDS011;72806;50.832;4.864;2024-01-30T08:35:48;6.53;;;4.85;;
82990;SDS011;72806;50.832;4.864;2024-01-30T08:38:16;9.35;;;4.78;;
82990;SDS011;72806;50.832;4.864;2024-01-30T08:40:45;9.98;;;5.18;;
82990;SDS011;72806;50.832;4.864;2024-01-30T08:43:12;12.05;;;4.88;;
82990;SDS011;72806;50.832;4.864;2024-01-30T08:45:40;7.78;;;4.78;;
82990;SDS011;72806;50.832;4.864;2024-01-30T08:48:08;10.27;;;4.75;;
82990;SDS011;72806;50.832;4.864;2024-01-30T08:50:35;9.48;;;4.70;;
82990;SDS011;72806;50.832;4.864;2024-01-30T08:53:03;8.95;;;4.78;;
82990;SDS011;72806;50.832;4.864;2024-01-30T08:55:31;8.02;;;4.63;;
82990;SDS011;72806;50.832;4.864;2024-01-30T08:58:00;10.65;;;5.20;;
82990;SDS011;72806;50.832;4.864;2024-01-30T09:00:29;8.85;;;4.90;;
82990;SDS011;72806;50.832;4.864;2024-01-30T09:02:56;9.00;;;5.30;;
82990;SDS011;72806;50.832;4.864;2024-01-30T09:05:23;9.90;;;5.25;;
82990;SDS011;72806;50.832;4.864;2024-01-30T09:07:51;8.20;;;5.07;;
82990;SDS011;72806;50.832;4.864;2024-01-30T09:10:18;9.32;;;4.85;;
82990;SDS011;72806;50.832;4.864;2024-01-30T09:12:46;7.43;;;4.72;;
82990;SDS011;72806;50.832;4.864;2024-01-30T09:15:15;13.35;;;5.25;;
82990;SDS011;72806;50.832;4.864;2024-01-30T09:17:42;10.00;;;5.22;;
82990;SDS011;72806;50.832;4.864;2024-01-30T09:20:10;6.97;;;4.68;;
82990;SDS011;72806;50.832;4.864;2024-01-30T09:22:37;8.73;;;5.30;;
82990;SDS011;72806;50.832;4.864;2024-01-30T09:25:05;8.55;;;5.20;;
82990;SDS011;72806;50.832;4.864;2024-01-30T09:27:32;7.78;;;4.97;;
82990;SDS011;72806;50.832;4.864;2024-01-30T09:29:59;10.80;;;5.45;;
82990;SDS011;72806;50.832;4.864;2024-01-30T09:32:27;7.78;;;5.13;;
82990;SDS011;72806;50.832;4.864;2024-01-30T09:34:55;9.18;;;5.07;;
82990;SDS011;72806;50.832;4.864;2024-01-30T09:37:22;9.20;;;5.43;;
82990;SDS011;72806;50.832;4.864;2024-01-30T09:39:49;8.35;;;5.30;;
82990;SDS011;72806;50.832;4.864;2024-01-30T09:42:18;10.00;;;5.53;;
82990;SDS011;72806;50.832;4.864;2024-01-30T09:44:53;8.98;;;5.70;;
82990;SDS011;72806;50.832;4.864;2024-01-30T09:47:20;8.35;;;6.00;;
82990;SDS011;72806;50.832;4.864;2024-01-30T09:49:50;8.93;;;5.57;;
82990;SDS011;72806;50.832;4.864;2024-01-30T09:52:17;9.90;;;5.35;;
82990;SDS011;72806;50.832;4.864;2024-01-30T09:54:45;12.35;;;5.47;;
82990;SDS011;72806;50.832;4.864;2024-01-30T09:57:12;8.88;;;5.32;;
82990;SDS011;72806;50.832;4.864;2024-01-30T09:59:41;9.18;;;5.35;;
82990;SDS011;72806;50.832;4.864;2024-01-30T10:02:09;10.07;;;5.07;;
82990;SDS011;72806;50.832;4.864;2024-01-30T10:04:36;7.65;;;5.00;;
82990;SDS011;72806;50.832;4.864;2024-01-30T10:07:05;7.95;;;4.97;;
82990;SDS011;72806;50.832;4.864;2024-01-30T10:09:33;9.82;;;5.70;;
82990;SDS011;72806;50.832;4.864;2024-01-30T10:12:01;9.23;;;5.35;;
82990;SDS011;72806;50.832;4.864;2024-01-30T10:14:29;10.93;;;6.00;;
82990;SDS011;72806;50.832;4.864;2024-01-30T10:16:57;9.60;;;6.10;;
82990;SDS011;72806;50.832;4.864;2024-01-30T10:19:24;8.98;;;5.30;;
82990;SDS011;72806;50.832;4.864;2024-01-30T10:21:52;11.60;;;5.80;;
82990;SDS011;72806;50.832;4.864;2024-01-30T10:24:24;10.35;;;5.82;;
82990;SDS011;72806;50.832;4.864;2024-01-30T10:26:53;9.93;;;6.07;;
82990;SDS011;72806;50.832;4.864;2024-01-30T10:29:20;11.20;;;5.80;;
82990;SDS011;72806;50.832;4.864;2024-01-30T10:31:57;7.85;;;4.90;;
82990;SDS011;72806;50.832;4.864;2024-01-30T10:34:24;9.95;;;5.32;;
82990;SDS011;72806;50.832;4.864;2024-01-30T10:36:54;12.23;;;5.43;;
82990;SDS011;72806;50.832;4.864;2024-01-30T10:39:23;10.85;;;5.25;;
82990;SDS011;72806;50.832;4.864;2024-01-30T10:41:52;9.35;;;5.40;;
82990;SDS011;72806;50.832;4.864;2024-01-30T10:44:20;10.93;;;5.53;;
82990;SDS011;72806;50.832;4.864;2024-01-30T10:46:50;11.10;;;5.93;;
82990;SDS011;72806;50.832;4.864;2024-01-30T10:49:19;12.48;;;5.10;;
82990;SDS011;72806;50.832;4.864;2024-01-30T10:51:48;10.98;;;6.20;;
82990;SDS011;72806;50.832;4.864;2024-01-30T10:54:17;12.85;;;6.18;;
82990;SDS011;72806;50.832;4.864;2024-01-30T10:56:44;10.68;;;6.40;;
82990;SDS011;72806;50.832;4.864;2024-01-30T10:59:13;10.57;;;6.07;;
82990;SDS011;72806;50.832;4.864;2024-01-30T11:01:41;12.60;;;5.82;;
82990;SDS011;72806;50.832;4.864;2024-01-30T11:04:08;14.90;;;6.40;;
82990;SDS011;72806;50.832;4.864;2024-01-30T11:06:40;14.70;;;6.55;;
82990;SDS011;72806;50.832;4.864;2024-01-30T11:09:10;11.27;;;6.45;;
82990;SDS011;72806;50.832;4.864;2024-01-30T11:11:50;11.52;;;5.70;;
82990;SDS011;72806;50.832;4.864;2024-01-30T11:14:24;13.65;;;7.15;;
82990;SDS011;72806;50.832;4.864;2024-01-30T11:16:51;9.30;;;5.85;;
82990;SDS011;72806;50.832;4.864;2024-01-30T11:19:24;11.55;;;6.32;;
82990;SDS011;72806;50.832;4.864;2024-01-30T11:21:52;10.07;;;6.57;;
82990;SDS011;72806;50.832;4.864;2024-01-30T11:24:22;15.98;;;7.55;;
82990;SDS011;72806;50.832;4.864;2024-01-30T11:26:49;12.77;;;7.47;;
82990;SDS011;72806;50.832;4.864;2024-01-30T11:29:17;15.90;;;7.72;;
82990;SDS011;72806;50.832;4.864;2024-01-30T11:31:55;14.15;;;7.65;;
82990;SDS011;72806;50.832;4.864;2024-01-30T11:34:23;11.60;;;7.35;;
82990;SDS011;72806;50.832;4.864;2024-01-30T11:36:51;15.73;;;7.10;;
82990;SDS011;72806;50.832;4.864;2024-01-30T11:39:24;13.85;;;7.53;;
82990;SDS011;72806;50.832;4.864;2024-01-30T11:41:52;9.90;;;5.85;;
82990;SDS011;72806;50.832;4.864;2024-01-30T11:44:20;10.63;;;6.78;;
82990;SDS011;72806;50.832;4.864;2024-01-30T11:46:48;9.82;;;4.97;;
82990;SDS011;72806;50.832;4.864;2024-01-30T11:49:17;6.90;;;3.75;;
82990;SDS011;72806;50.832;4.864;2024-01-30T11:51:45;7.20;;;3.78;;
82990;SDS011;72806;50.832;4.864;2024-01-30T11:54:14;6.63;;;3.17;;
82990;SDS011;72806;50.832;4.864;2024-01-30T11:56:41;7.70;;;3.60;;
82990;SDS011;72806;50.832;4.864;2024-01-30T11:59:09;9.35;;;3.90;;
82990;SDS011;72806;50.832;4.864;2024-01-30T12:01:36;7.43;;;2.78;;
82990;SDS011;72806;50.832;4.864;2024-01-30T12:04:04;3.85;;;1.83;;
82990;SDS011;72806;50.832;4.864;2024-01-30T12:06:35;4.57;;;2.10;;
82990;SDS011;72806;50.832;4.864;2024-01-30T12:09:03;2.88;;;1.90;;
82990;SDS011;72806;50.832;4.864;2024-01-30T12:11:33;5.80;;;2.20;;
82990;SDS011;72806;50.832;4.864;2024-01-30T12:14:00;2.95;;;1.90;;
82990;SDS011;72806;50.832;4.864;2024-01-30T12:16:27;3.95;;;1.60;;
82990;SDS011;72806;50.832;4.864;2024-01-30T12:19:01;2.83;;;1.77;;
82990;SDS011;72806;50.832;4.864;2024-01-30T12:21:28;4.18;;;1.77;;
82990;SDS011;72806;50.832;4.864;2024-01-30T12:23:58;5.80;;;1.52;;
82990;SDS011;72806;50.832;4.864;2024-01-30T12:26:28;1.83;;;1.58;;
82990;SDS011;72806;50.832;4.864;2024-01-30T12:28:55;3.88;;;1.65;;
82990;SDS011;72806;50.832;4.864;2024-01-30T12:31:27;2.45;;;1.35;;
82990;SDS011;72806;50.832;4.864;2024-01-30T12:33:54;4.72;;;1.20;;
82990;SDS011;72806;50.832;4.864;2024-01-30T12:36:22;3.50;;;1.40;;
82990;SDS011;72806;50.832;4.864;2024-01-30T12:38:49;1.80;;;1.20;;
82990;SDS011;72806;50.832;4.864;2024-01-30T12:41:19;2.50;;;1.15;;
82990;SDS011;72806;50.832;4.864;2024-01-30T12:43:47;2.33;;;0.98;;
82990;SDS011;72806;50.832;4.864;2024-01-30T12:46:16;3.33;;;0.90;;
82990;SDS011;72806;50.832;4.864;2024-01-30T12:48:44;3.42;;;1.15;;
82990;SDS011;72806;50.832;4.864;2024-01-30T12:51:11;2.15;;;1.02;;
82990;SDS011;72806;50.832;4.864;2024-01-30T12:53:38;0.82;;;0.80;;
82990;SDS011;72806;50.832;4.864;2024-01-30T12:56:06;1.65;;;0.63;;
82990;SDS011;72806;50.832;4.864;2024-01-30T12:58:34;0.47;;;0.47;;
82990;SDS011;72806;50.832;4.864;2024-01-30T13:01:02;1.35;;;0.60;;
82990;SDS011;72806;50.832;4.864;2024-01-30T13:03:29;3.75;;;0.93;;
82990;SDS011;72806;50.832;4.864;2024-01-30T13:05:56;1.50;;;0.70;;
82990;SDS011;72806;50.832;4.864;2024-01-30T13:08:24;1.35;;;0.60;;
82990;SDS011;72806;50.832;4.864;2024-01-30T13:10:51;0.63;;;0.55;;
82990;SDS011;72806;50.832;4.864;2024-01-30T13:13:19;1.35;;;0.80;;
82990;SDS011;72806;50.832;4.864;2024-01-30T13:15:47;0.70;;;0.47;;
82990;SDS011;72806;50.832;4.864;2024-01-30T13:18:15;2.42;;;0.60;;
82990;SDS011;72806;50.832;4.864;2024-01-30T13:20:42;1.85;;;0.80;;
82990;SDS011;72806;50.832;4.864;2024-01-30T13:23:09;1.20;;;0.50;;
82990;SDS011;72806;50.832;4.864;2024-01-30T13:25:37;2.08;;;0.60;;
82990;SDS011;72806;50.832;4.864;2024-01-30T13:28:04;5.32;;;0.80;;
82990;SDS011;72806;50.832;4.864;2024-01-30T13:30:32;5.50;;;0.60;;
82990;SDS011;72806;50.832;4.864;2024-01-30T13:33:00;2.55;;;0.70;;
82990;SDS011;72806;50.832;4.864;2024-01-30T13:35:29;1.35;;;0.80;;
82990;SDS011;72806;50.832;4.864;2024-01-30T13:37:56;0.75;;;0.50;;
82990;SDS011;72806;50.832;4.864;2024-01-30T13:40:24;0.40;;;0.40;;
82990;SDS011;72806;50.832;4.864;2024-01-30T13:42:51;1.73;;;0.47;;
82990;SDS011;72806;50.832;4.864;2024-01-30T13:45:19;1.98;;;0.47;;
82990;SDS011;72806;50.832;4.864;2024-01-30T13:47:47;1.55;;;0.57;;
82990;SDS011;72806;50.832;4.864;2024-01-30T13:50:16;0.75;;;0.57;;
82990;SDS011;72806;50.832;4.864;2024-01-30T13:52:43;2.03;;;1.02;;
82990;SDS011;72806;50.832;4.864;2024-01-30T13:55:10;2.95;;;0.65;;
82990;SDS011;72806;50.832;4.864;2024-01-30T13:57:38;1.42;;;0.63;;
82990;SDS011;72806;50.832;4.864;2024-01-30T14:00:06;2.92;;;0.65;;
82990;SDS011;72806;50.832;4.864;2024-01-30T14:02:34;0.50;;;0.40;;
82990;SDS011;72806;50.832;4.864;2024-01-30T14:05:01;1.08;;;0.52;;
82990;SDS011;72806;50.832;4.864;2024-01-30T14:07:31;1.85;;;0.47;;
82990;SDS011;72806;50.832;4.864;2024-01-30T14:09:58;3.05;;;0.80;;
82990;SDS011;72806;50.832;4.864;2024-01-30T14:12:25;1.45;;;0.47;;
82990;SDS011;72806;50.832;4.864;2024-01-30T14:14:53;1.98;;;0.60;;
82990;SDS011;72806;50.832;4.864;2024-01-30T14:17:21;2.60;;;0.70;;
82990;SDS011;72806;50.832;4.864;2024-01-30T14:19:48;3.90;;;0.90;;
82990;SDS011;72806;50.832;4.864;2024-01-30T14:22:15;2.33;;;0.50;;
82990;SDS011;72806;50.832;4.864;2024-01-30T14:24:44;3.22;;;0.80;;
82990;SDS011;72806;50.832;4.864;2024-01-30T14:27:12;2.55;;;0.60;;
82990;SDS011;72806;50.832;4.864;2024-01-30T14:29:39;2.15;;;0.65;;
82990;SDS011;72806;50.832;4.864;2024-01-30T14:32:07;2.40;;;0.75;;
82990;SDS011;72806;50.832;4.864;2024-01-30T14:34:34;1.88;;;0.57;;
82990;SDS011;72806;50.832;4.864;2024-01-30T14:37:02;1.38;;;0.75;;
82990;SDS011;72806;50.832;4.864;2024-01-30T14:39:29;0.95;;;0.50;;
82990;SDS011;72806;50.832;4.864;2024-01-30T14:41:58;1.15;;;0.70;;
82990;SDS011;72806;50.832;4.864;2024-01-30T14:44:25;2.47;;;1.00;;
82990;SDS011;72806;50.832;4.864;2024-01-30T14:46:52;1.77;;;0.60;;
82990;SDS011;72806;50.832;4.864;2024-01-30T14:49:20;4.72;;;1.17;;